createdAt,value
2023-05-12T00:02:29.208Z,10.05
2023-05-12T00:07:32.536Z,9.98
2023-05-12T00:12:36.846Z,8.27
2023-05-12T00:17:39.741Z,13.30
2023-05-12T00:22:42.631Z,18.45
2023-05-12T00:27:46.752Z,14.65
2023-05-12T00:32:49.710Z,11.75
2023-05-12T00:37:52.612Z,10.95
2023-05-12T00:42:56.866Z,8.32
2023-05-12T00:47:59.881Z,10.70
2023-05-12T00:53:03.101Z,10.00
2023-05-12T00:58:07.547Z,8.82
2023-05-12T01:03:11.739Z,5.90
2023-05-12T01:08:15.047Z,7.22
2023-05-12T01:13:19.517Z,6.50
2023-05-12T01:18:25.325Z,6.05
2023-05-12T01:23:34.914Z,5.50
2023-05-12T01:28:41.160Z,9.05
2023-05-12T01:33:44.744Z,4.88
2023-05-12T01:38:47.849Z,7.72
2023-05-12T01:43:52.116Z,6.28
2023-05-12T01:48:54.943Z,7.15
2023-05-12T01:53:57.886Z,5.55
2023-05-12T01:59:04.653Z,6.05
2023-05-12T02:04:09.184Z,6.55
2023-05-12T02:09:13.343Z,6.80
2023-05-12T02:14:17.548Z,5.57
2023-05-12T02:19:20.770Z,6.63
2023-05-12T02:24:23.741Z,6.20
2023-05-12T02:29:27.911Z,6.35
2023-05-12T02:34:30.937Z,5.75
2023-05-12T02:39:34.226Z,6.10
2023-05-12T02:44:38.561Z,5.07
2023-05-12T02:49:41.662Z,5.43
2023-05-12T02:54:44.678Z,6.47
2023-05-12T02:59:48.905Z,6.35
2023-05-12T03:04:51.730Z,6.18
2023-05-12T03:09:54.605Z,6.05
2023-05-12T03:15:00.425Z,5.38
2023-05-12T03:20:03.503Z,6.22
2023-05-12T03:25:08.187Z,5.72
2023-05-12T03:30:13.717Z,5.85
2023-05-12T03:35:16.669Z,6.50
2023-05-12T03:40:19.914Z,7.00
2023-05-12T03:45:24.788Z,8.50
2023-05-12T03:50:27.579Z,7.60
2023-05-12T03:55:30.475Z,4.90
2023-05-12T04:00:35.237Z,5.97
2023-05-12T04:05:39.523Z,7.18
2023-05-12T04:10:43.323Z,5.30
2023-05-12T04:15:47.459Z,6.07
2023-05-12T04:20:50.234Z,8.70
2023-05-12T04:25:53.623Z,7.13
2023-05-12T04:30:57.859Z,9.10
2023-05-12T04:36:01.417Z,8.23
2023-05-12T04:41:04.557Z,7.20
2023-05-12T04:46:09.077Z,6.03
2023-05-12T04:51:12.101Z,6.65
2023-05-12T04:56:15.025Z,6.63
2023-05-12T05:01:20.163Z,7.30
2023-05-12T05:06:23.216Z,6.43
2023-05-12T05:11:26.896Z,8.32
2023-05-12T05:16:31.330Z,7.13
2023-05-12T05:21:34.546Z,6.97
2023-05-12T05:26:37.561Z,8.10
2023-05-12T05:31:41.756Z,7.85
2023-05-12T05:36:44.598Z,6.85
2023-05-12T05:41:47.562Z,8.52
2023-05-12T05:46:52.147Z,7.53
2023-05-12T05:51:56.192Z,7.55
2023-05-12T05:57:02.074Z,7.88
2023-05-12T06:02:07.835Z,7.80
2023-05-12T06:07:10.753Z,8.35
2023-05-12T06:12:13.617Z,6.55
2023-05-12T06:17:18.081Z,7.63
2023-05-12T06:22:21.270Z,8.60
2023-05-12T06:27:24.341Z,10.77
2023-05-12T06:32:28.511Z,7.50
2023-05-12T06:37:31.334Z,9.70
2023-05-12T06:42:34.142Z,9.13
2023-05-12T06:47:45.656Z,10.48
2023-05-12T06:52:48.504Z,6.90
2023-05-12T06:57:55.715Z,8.63
2023-05-12T07:03:00.028Z,6.10
2023-05-12T07:08:02.851Z,8.48
2023-05-12T07:13:05.726Z,9.13
2023-05-12T07:18:10.076Z,6.97
2023-05-12T07:23:13.052Z,7.22
2023-05-12T07:28:16.001Z,10.02
2023-05-12T07:33:20.192Z,8.25
2023-05-12T07:38:23.086Z,7.22
2023-05-12T07:43:25.973Z,7.10
2023-05-12T07:48:30.607Z,7.57
2023-05-12T07:53:33.493Z,6.57
2023-05-12T07:58:36.524Z,7.65
2023-05-12T08:03:40.722Z,7.78
2023-05-12T08:08:43.727Z,7.70
2023-05-12T08:13:46.594Z,6.97
2023-05-12T08:18:51.047Z,8.25
2023-05-12T08:23:53.844Z,5.85
2023-05-12T08:28:56.652Z,5.72
2023-05-12T08:34:09.642Z,6.57
2023-05-12T08:39:12.955Z,6.25
2023-05-12T08:44:17.031Z,9.85
2023-05-12T08:49:26.168Z,7.07
2023-05-12T08:54:29.811Z,8.18
2023-05-12T08:59:35.655Z,6.35
2023-05-12T09:04:39.815Z,6.78
2023-05-12T09:09:45.995Z,7.72
2023-05-12T09:14:59.631Z,5.20
2023-05-12T09:20:04.253Z,6.88
2023-05-12T09:25:17.255Z,6.57
2023-05-12T09:30:30.654Z,5.18
2023-05-12T09:35:39.270Z,8.13
2023-05-12T09:40:43.064Z,6.40
2023-05-12T09:45:50.081Z,6.32
2023-05-12T09:50:54.291Z,7.23
2023-05-12T09:55:57.058Z,5.68
2023-05-12T10:01:20.924Z,4.68
2023-05-12T10:06:28.222Z,6.00
2023-05-12T10:11:31.439Z,4.82
2023-05-12T10:16:34.772Z,5.55
2023-05-12T10:21:39.646Z,5.50
2023-05-12T10:26:43.737Z,4.13
2023-05-12T10:31:47.811Z,7.65
2023-05-12T10:36:54.103Z,6.93
2023-05-12T10:42:02.364Z,6.47
2023-05-12T10:47:14.702Z,4.60
2023-05-12T10:52:21.915Z,4.80
2023-05-12T10:57:24.878Z,4.20
2023-05-12T11:02:32.051Z,6.40
2023-05-12T11:07:37.528Z,5.20
2023-05-12T11:12:40.780Z,4.95
2023-05-12T11:17:43.607Z,6.05
2023-05-12T11:22:48.020Z,6.35
2023-05-12T11:27:51.413Z,4.85
2023-05-12T11:33:04.374Z,5.22
2023-05-12T11:38:17.815Z,6.53
2023-05-12T11:43:22.235Z,5.65
2023-05-12T11:48:35.480Z,6.65
2023-05-12T11:53:42.547Z,5.20
2023-05-12T11:58:53.635Z,5.47
2023-05-12T12:03:57.067Z,6.82
2023-05-12T12:09:02.059Z,4.97
2023-05-12T12:14:05.040Z,7.57
2023-05-12T12:19:08.780Z,7.28
2023-05-12T12:24:12.950Z,5.18
2023-05-12T12:29:15.707Z,5.13
2023-05-12T12:34:19.179Z,5.30
2023-05-12T12:39:23.327Z,6.43
2023-05-12T12:44:26.547Z,6.55
2023-05-12T12:49:29.489Z,8.32
2023-05-12T12:54:33.710Z,6.13
2023-05-12T12:59:36.469Z,4.53
2023-05-12T13:04:39.330Z,6.20
2023-05-12T13:09:43.395Z,3.58
2023-05-12T13:14:46.199Z,4.82
2023-05-12T13:19:48.959Z,4.80
2023-05-12T13:24:53.037Z,4.22
2023-05-12T13:29:55.819Z,4.57
2023-05-12T13:34:59.109Z,4.72
2023-05-12T13:40:03.382Z,4.43
2023-05-12T13:45:07.316Z,3.70
2023-05-12T13:50:10.487Z,5.03
2023-05-12T13:55:20.534Z,3.63
2023-05-12T14:00:27.009Z,3.85
2023-05-12T14:05:29.820Z,5.05
2023-05-12T14:10:35.375Z,4.32
2023-05-12T14:15:48.852Z,5.18
2023-05-12T14:20:52.678Z,8.07
2023-05-12T14:25:56.949Z,4.18
2023-05-12T14:30:59.772Z,5.70
2023-05-12T14:36:07.496Z,5.22
2023-05-12T14:41:12.361Z,6.03
2023-05-12T14:46:15.310Z,4.50
2023-05-12T14:51:18.220Z,7.25
2023-05-12T14:56:22.325Z,5.57
2023-05-12T15:01:25.092Z,6.78
2023-05-12T15:06:27.838Z,7.32
2023-05-12T15:11:31.925Z,5.10
2023-05-12T15:16:34.673Z,6.13
2023-05-12T15:21:37.443Z,5.28
2023-05-12T15:26:41.751Z,7.97
2023-05-12T15:31:45.128Z,9.23
2023-05-12T15:36:48.833Z,7.43
2023-05-12T15:41:53.210Z,9.57
2023-05-12T15:46:56.469Z,5.60
2023-05-12T15:51:59.370Z,6.45
2023-05-12T15:57:04.000Z,8.18
2023-05-12T16:02:08.280Z,9.38
2023-05-12T16:07:11.230Z,4.75
2023-05-12T16:12:15.540Z,8.23
2023-05-12T16:17:18.396Z,6.47
2023-05-12T16:22:21.213Z,7.57
2023-05-12T16:27:25.556Z,6.55
2023-05-12T16:32:28.519Z,6.07
2023-05-12T16:37:32.371Z,5.43
2023-05-12T16:42:36.577Z,7.13
2023-05-12T16:47:39.367Z,7.57
2023-05-12T16:52:42.204Z,8.13
2023-05-12T16:57:46.271Z,9.43
2023-05-12T17:02:49.153Z,9.63
2023-05-12T17:07:52.358Z,6.75
2023-05-12T17:12:56.566Z,6.20
2023-05-12T17:17:59.514Z,6.93
2023-05-12T17:23:02.601Z,6.75
2023-05-12T17:28:07.049Z,9.23
2023-05-12T17:33:09.873Z,5.82
2023-05-12T17:38:12.604Z,7.40
2023-05-12T17:43:16.686Z,7.90
2023-05-12T17:48:19.665Z,7.43
2023-05-12T17:53:22.416Z,7.25
2023-05-12T17:58:26.682Z,6.85
2023-05-12T18:03:29.965Z,7.15
2023-05-12T18:08:32.809Z,6.07
2023-05-12T18:13:37.075Z,7.43
2023-05-12T18:18:39.912Z,5.13
2023-05-12T18:23:42.771Z,6.65
2023-05-12T18:28:46.955Z,8.30
2023-05-12T18:33:50.894Z,9.80
2023-05-12T18:38:53.915Z,8.68
2023-05-12T18:43:58.067Z,5.30
2023-05-12T18:49:00.944Z,6.20
2023-05-12T18:54:04.308Z,7.32
2023-05-12T18:59:08.410Z,9.63
2023-05-12T19:04:11.811Z,7.97
2023-05-12T19:09:14.703Z,7.88
2023-05-12T19:14:19.786Z,9.00
2023-05-12T19:19:22.757Z,6.30
2023-05-12T19:24:26.840Z,7.90
2023-05-12T19:30:05.561Z,9.15
2023-05-12T19:35:12.425Z,8.95
2023-05-12T19:40:15.350Z,9.30
2023-05-12T19:45:19.877Z,10.27
2023-05-12T19:50:22.849Z,9.50
2023-05-12T19:55:25.797Z,10.13
2023-05-12T20:00:30.025Z,9.57
2023-05-12T20:05:32.878Z,9.35
2023-05-12T20:10:35.728Z,8.30
2023-05-12T20:15:39.968Z,9.40
2023-05-12T20:20:43.244Z,8.07
2023-05-12T20:25:46.666Z,9.90
2023-05-12T20:30:51.713Z,10.93
2023-05-12T20:35:54.667Z,11.05
2023-05-12T20:40:57.506Z,9.68
2023-05-12T20:46:04.652Z,11.98
2023-05-12T20:51:13.899Z,14.37
2023-05-12T20:56:16.857Z,10.85
2023-05-12T21:01:21.050Z,10.52
2023-05-12T21:06:23.930Z,12.23
2023-05-12T21:11:26.909Z,10.23
2023-05-12T21:16:31.022Z,8.15
2023-05-12T21:21:33.853Z,10.13
2023-05-12T21:26:36.627Z,10.90
2023-05-12T21:31:40.687Z,12.20
2023-05-12T21:36:43.564Z,9.23
2023-05-12T21:41:46.315Z,10.90
2023-05-12T21:46:50.500Z,12.27
2023-05-12T21:51:55.820Z,10.18
2023-05-12T21:56:58.755Z,11.20
2023-05-12T22:02:02.869Z,11.85
2023-05-12T22:07:06.041Z,10.93
2023-05-12T22:12:13.501Z,12.00
2023-05-12T22:17:17.683Z,11.07
2023-05-12T22:22:20.420Z,9.35
2023-05-12T22:27:23.211Z,8.52
2023-05-12T22:32:27.471Z,10.57
2023-05-12T22:37:30.378Z,11.00
2023-05-12T22:42:33.149Z,12.43
2023-05-12T22:47:37.476Z,10.10
2023-05-12T22:52:40.332Z,9.95
2023-05-12T22:57:45.321Z,10.88
2023-05-12T23:02:49.478Z,10.88
2023-05-12T23:07:52.208Z,8.90
2023-05-12T23:12:55.141Z,10.75
2023-05-12T23:17:59.281Z,10.68
2023-05-12T23:23:02.159Z,7.57
2023-05-12T23:28:05.080Z,9.00
2023-05-12T23:33:09.244Z,9.52
2023-05-12T23:38:12.042Z,10.63
2023-05-12T23:43:15.154Z,9.45
2023-05-12T23:48:19.347Z,10.48
2023-05-12T23:53:22.120Z,11.32
2023-05-12T23:58:24.880Z,10.70
